createdAt,value
2023-05-10T09:38:04.247Z,0.90
2023-05-10T09:44:29.535Z,1.30
2023-05-10T09:51:05.405Z,1.10
2023-05-10T10:03:54.515Z,0.80
2023-05-10T10:07:39.368Z,1.40
2023-05-10T10:14:12.505Z,1.80
2023-05-10T10:17:26.353Z,0.70
2023-05-10T10:20:34.979Z,1.10
2023-05-10T10:23:45.612Z,0.70
2023-05-10T10:26:43.188Z,2.30
2023-05-10T10:29:21.881Z,1.70
2023-05-10T10:32:22.229Z,1.30
2023-05-10T10:34:51.644Z,1.40
2023-05-10T10:37:18.449Z,1.60
2023-05-10T10:40:10.539Z,1.60
2023-05-10T10:42:52.165Z,1.70
2023-05-10T10:45:19.311Z,1.00
2023-05-10T10:49:01.155Z,2.20
2023-05-10T10:52:16.438Z,1.20
2023-05-10T10:54:53.243Z,0.70
2023-05-10T10:57:27.093Z,1.20
2023-05-10T11:00:16.420Z,0.70
2023-05-10T11:03:11.848Z,1.20
2023-05-10T11:05:46.639Z,0.60
2023-05-10T11:08:22.769Z,0.70
2023-05-10T11:11:14.701Z,1.00
2023-05-10T11:20:35.485Z,0.70
2023-05-10T11:36:28.514Z,0.30
2023-05-10T11:42:51.400Z,0.70
2023-05-10T11:58:05.556Z,1.50
2023-05-10T12:01:47.237Z,0.50
2023-05-10T12:08:11.769Z,0.80
2023-05-10T12:10:40.195Z,1.40
2023-05-10T12:16:40.452Z,2.40
2023-05-10T12:19:27.691Z,0.40
2023-05-10T12:22:16.587Z,1.10
2023-05-10T12:25:17.231Z,1.10
2023-05-10T12:28:03.628Z,1.80
2023-05-10T12:30:37.393Z,1.10
2023-05-10T12:33:10.311Z,0.50
2023-05-10T12:40:27.554Z,0.50
2023-05-10T12:57:29.370Z,0.90
2023-05-10T13:04:30.357Z,0.90
2023-05-10T13:07:15.483Z,0.70
2023-05-10T13:10:43.269Z,0.50
2023-05-10T13:13:12.611Z,0.70
2023-05-10T13:16:01.697Z,0.70
2023-05-10T13:18:56.056Z,1.10
2023-05-10T13:21:24.756Z,1.10
2023-05-10T13:24:37.290Z,0.80
2023-05-10T13:28:04.043Z,0.60
2023-05-10T13:30:30.838Z,0.40
2023-05-10T13:33:03.495Z,1.00
2023-05-10T13:35:43.526Z,0.30
2023-05-10T13:38:18.976Z,0.70
2023-05-10T13:41:43.021Z,0.70
2023-05-10T13:45:28.256Z,0.90
2023-05-10T13:48:56.858Z,0.60
2023-05-10T13:56:18.941Z,1.30
2023-05-10T13:59:29.569Z,1.00
2023-05-10T14:02:16.248Z,1.00
2023-05-10T14:05:25.963Z,1.80
2023-05-10T14:21:17.583Z,1.80
2023-05-10T14:34:47.309Z,1.10
2023-05-10T14:37:58.111Z,0.90
2023-05-10T14:41:31.177Z,0.80
2023-05-10T14:44:40.385Z,0.90
2023-05-10T14:47:48.324Z,0.70
2023-05-10T14:54:39.476Z,1.20
2023-05-10T14:57:11.647Z,1.00
2023-05-10T14:59:42.509Z,0.80
2023-05-10T15:02:18.292Z,1.10
2023-05-10T15:04:47.811Z,1.90
2023-05-10T15:07:19.625Z,0.90
2023-05-10T15:09:51.962Z,1.50
2023-05-10T15:12:22.998Z,1.00
2023-05-10T15:15:27.099Z,0.80
2023-05-10T15:17:58.166Z,0.90
2023-05-10T15:20:29.387Z,1.10
2023-05-10T15:23:16.177Z,1.70
2023-05-10T15:25:46.927Z,0.90
2023-05-10T15:28:16.357Z,2.50
2023-05-10T15:31:07.162Z,1.70
2023-05-10T15:33:39.192Z,0.90
2023-05-10T15:36:07.921Z,0.80
2023-05-10T15:38:38.610Z,1.10
2023-05-10T15:41:21.259Z,1.00
2023-05-10T15:43:52.191Z,1.40
2023-05-10T15:46:24.805Z,0.60
2023-05-10T15:48:55.243Z,0.50
2023-05-10T15:51:27.369Z,1.70
2023-05-10T15:54:06.421Z,0.60
2023-05-10T15:56:34.623Z,1.00
2023-05-10T15:59:01.494Z,1.00
2023-05-10T16:01:32.912Z,1.10
2023-05-10T16:04:04.924Z,0.70
2023-05-10T16:08:58.658Z,1.10
2023-05-10T16:11:29.275Z,1.20
2023-05-10T16:13:56.192Z,1.30
2023-05-10T16:18:57.568Z,1.30
2023-05-10T16:21:31.015Z,0.70
2023-05-10T16:23:58.421Z,0.90
2023-05-10T16:26:25.429Z,0.90
2023-05-10T16:29:00.791Z,1.50
2023-05-10T16:31:27.402Z,1.90
2023-05-10T16:33:54.173Z,1.30
2023-05-10T16:36:20.936Z,0.90
2023-05-10T16:38:49.635Z,0.50
2023-05-10T16:41:18.163Z,1.20
2023-05-10T16:43:52.359Z,1.90
2023-05-10T16:46:43.517Z,1.80
2023-05-10T16:49:30.737Z,1.40
2023-05-10T16:52:21.372Z,0.50
2023-05-10T16:54:58.755Z,1.40
2023-05-10T16:57:27.811Z,1.50
2023-05-10T16:59:56.914Z,1.80
2023-05-10T17:02:28.888Z,1.60
2023-05-10T17:05:04.034Z,1.00
2023-05-10T17:07:34.470Z,1.40
2023-05-10T17:10:01.062Z,2.00
2023-05-10T17:12:29.802Z,1.50
2023-05-10T17:14:56.775Z,2.20
2023-05-10T17:17:27.761Z,2.50
2023-05-10T17:20:03.036Z,2.10
2023-05-10T17:22:29.624Z,1.60
2023-05-10T17:24:56.082Z,2.40
2023-05-10T17:27:57.155Z,1.90
2023-05-10T17:30:52.999Z,2.40
2023-05-10T17:33:19.718Z,2.60
2023-05-10T17:35:56.063Z,2.00
2023-05-10T17:38:24.918Z,2.70
2023-05-10T17:40:52.089Z,1.30
2023-05-10T17:43:20.203Z,1.70
2023-05-10T17:45:49.906Z,1.00
2023-05-10T17:48:21.649Z,1.30
2023-05-10T17:50:50.323Z,1.10
2023-05-10T17:53:17.326Z,1.50
2023-05-10T17:55:43.941Z,1.40
2023-05-10T17:58:27.341Z,1.30
2023-05-10T18:03:43.576Z,1.40
2023-05-10T18:06:27.693Z,1.30
2023-05-10T18:09:13.299Z,1.30
2023-05-10T18:12:32.837Z,1.20
2023-05-10T18:15:01.577Z,0.80
2023-05-10T18:17:28.403Z,1.70
2023-05-10T18:19:55.566Z,1.80
2023-05-10T18:25:12.498Z,1.60
2023-05-10T18:27:39.228Z,1.80
2023-05-10T18:30:06.363Z,2.40
2023-05-10T18:32:37.808Z,1.50
2023-05-10T18:35:05.841Z,1.90
2023-05-10T18:37:32.778Z,2.50
2023-05-10T18:40:04.350Z,2.80
2023-05-10T18:42:36.972Z,4.00
2023-05-10T18:45:18.774Z,3.30
2023-05-10T18:47:52.293Z,2.80
2023-05-10T18:50:34.349Z,2.20
2023-05-10T18:53:22.875Z,2.80
2023-05-10T18:56:10.271Z,2.70
2023-05-10T18:58:40.904Z,3.40
2023-05-10T19:01:08.416Z,2.50
2023-05-10T19:03:35.708Z,2.50
2023-05-10T19:10:39.365Z,3.10
2023-05-10T19:13:35.589Z,2.70
2023-05-10T19:16:23.470Z,4.60
2023-05-10T19:18:56.601Z,3.10
2023-05-10T19:21:28.798Z,3.30
2023-05-10T19:24:25.375Z,2.00
2023-05-10T19:26:58.637Z,3.40
2023-05-10T19:29:27.470Z,3.80
2023-05-10T19:31:54.202Z,3.10
2023-05-10T19:34:20.743Z,2.80
2023-05-10T19:36:47.339Z,1.50
2023-05-10T19:39:22.914Z,2.70
2023-05-10T19:42:13.583Z,2.10
2023-05-10T19:44:40.468Z,2.30
2023-05-10T19:47:08.539Z,2.60
2023-05-10T19:49:50.978Z,3.10
2023-05-10T19:52:19.105Z,2.60
2023-05-10T19:55:05.109Z,2.40
2023-05-10T19:57:31.858Z,1.90
2023-05-10T20:00:27.207Z,2.50
2023-05-10T20:02:55.317Z,2.60
2023-05-10T20:05:22.265Z,1.80
2023-05-10T20:07:49.308Z,2.60
2023-05-10T20:10:31.336Z,2.50
2023-05-10T20:13:00.383Z,3.60
2023-05-10T20:15:31.698Z,1.80
2023-05-10T20:18:03.091Z,2.90
2023-05-10T20:20:34.058Z,1.80
2023-05-10T20:23:29.268Z,3.70
